createdAt,value
2018-12-27T00:02:54.904Z,10.50
2018-12-27T00:07:46.596Z,10.73
2018-12-27T00:12:42.234Z,11.10
2018-12-27T00:17:37.722Z,10.17
2018-12-27T00:22:33.273Z,11.23
2018-12-27T00:27:28.821Z,11.87
2018-12-27T00:32:24.898Z,11.67
2018-12-27T00:37:21.041Z,11.33
2018-12-27T00:42:17.036Z,11.13
2018-12-27T00:47:13.029Z,10.30
2018-12-27T00:52:09.037Z,11.20
2018-12-27T00:57:05.036Z,11.43
2018-12-27T01:02:01.025Z,10.57
2018-12-27T01:06:57.067Z,10.67
2018-12-27T01:11:53.086Z,10.33
2018-12-27T01:16:49.085Z,10.30
2018-12-27T01:21:45.380Z,10.30
2018-12-27T01:26:41.430Z,10.33
2018-12-27T01:31:37.458Z,11.30
2018-12-27T01:36:33.523Z,10.30
2018-12-27T01:41:29.835Z,9.53
2018-12-27T01:46:25.982Z,9.63
2018-12-27T01:51:22.034Z,9.20
2018-12-27T01:56:18.064Z,9.80
2018-12-27T02:01:14.192Z,9.57
2018-12-27T02:06:10.166Z,10.10
2018-12-27T02:11:06.318Z,9.93
2018-12-27T02:16:02.389Z,10.03
2018-12-27T02:20:58.336Z,9.90
2018-12-27T02:25:54.328Z,9.83
2018-12-27T02:30:50.591Z,9.47
2018-12-27T02:35:46.647Z,9.60
2018-12-27T02:40:42.742Z,9.87
2018-12-27T02:45:38.720Z,9.83
2018-12-27T02:50:34.715Z,9.53
2018-12-27T02:55:30.934Z,10.47
2018-12-27T03:00:26.976Z,10.50
2018-12-27T03:05:23.040Z,10.70
2018-12-27T03:10:19.018Z,10.10
2018-12-27T03:15:14.977Z,10.70
2018-12-27T03:20:11.001Z,10.57
2018-12-27T03:25:07.024Z,10.53
2018-12-27T03:30:03.024Z,10.30
2018-12-27T03:34:59.010Z,9.93
2018-12-27T03:39:54.972Z,10.87
2018-12-27T03:44:50.985Z,9.80
2018-12-27T03:49:46.970Z,10.97
2018-12-27T03:54:42.961Z,10.67
2018-12-27T03:59:38.933Z,10.47
2018-12-27T04:04:34.903Z,9.73
2018-12-27T04:09:30.876Z,10.80
2018-12-27T04:14:26.890Z,10.70
2018-12-27T04:19:22.378Z,10.53
2018-12-27T04:24:19.581Z,10.63
2018-12-27T04:29:15.163Z,11.23
2018-12-27T04:34:10.671Z,10.33
2018-12-27T04:39:08.202Z,10.30
2018-12-27T04:44:03.696Z,11.50
2018-12-27T04:48:59.171Z,10.23
2018-12-27T04:53:54.679Z,10.03
2018-12-27T04:58:50.161Z,9.87
2018-12-27T05:03:45.764Z,9.83
2018-12-27T05:08:41.311Z,9.87
2018-12-27T05:13:36.795Z,10.37
2018-12-27T05:18:32.289Z,10.37
2018-12-27T05:23:27.757Z,10.60
2018-12-27T05:28:23.245Z,10.90
2018-12-27T05:33:18.751Z,10.47
2018-12-27T05:38:14.236Z,11.23
2018-12-27T05:43:09.721Z,9.97
2018-12-27T05:48:05.219Z,9.60
2018-12-27T05:53:00.715Z,10.10
2018-12-27T05:57:56.158Z,9.47
2018-12-27T06:02:51.646Z,9.97
2018-12-27T06:07:47.111Z,10.30
2018-12-27T06:12:42.655Z,10.17
2018-12-27T06:17:38.139Z,10.17
2018-12-27T06:22:33.584Z,10.10
2018-12-27T06:27:29.045Z,9.70
2018-12-27T06:32:24.582Z,9.60
2018-12-27T06:37:20.076Z,9.93
2018-12-27T06:42:15.571Z,10.20
2018-12-27T06:47:11.069Z,10.30
2018-12-27T06:52:07.758Z,10.90
2018-12-27T06:57:03.321Z,10.47
2018-12-27T07:01:58.779Z,10.53
2018-12-27T07:06:54.284Z,10.40
2018-12-27T07:11:49.802Z,9.93
2018-12-27T07:16:45.382Z,10.10
2018-12-27T07:21:40.898Z,11.00
2018-12-27T07:26:36.675Z,9.50
2018-12-27T07:31:32.326Z,9.37
2018-12-27T07:36:28.092Z,9.60
2018-12-27T07:41:23.739Z,10.40
2018-12-27T07:46:19.351Z,8.97
2018-12-27T07:51:14.918Z,10.30
2018-12-27T07:56:10.496Z,10.20
2018-12-27T08:01:05.971Z,8.83
2018-12-27T08:06:01.528Z,9.57
2018-12-27T08:10:57.159Z,9.87
2018-12-27T08:15:52.769Z,9.70
2018-12-27T08:20:48.254Z,8.57
2018-12-27T08:25:43.796Z,9.17
2018-12-27T08:30:39.283Z,8.83
2018-12-27T08:35:35.053Z,8.20
2018-12-27T08:40:30.577Z,8.23
2018-12-27T08:45:26.070Z,8.13
2018-12-27T08:50:21.561Z,8.43
2018-12-27T08:55:17.006Z,9.17
2018-12-27T09:00:12.495Z,8.67
2018-12-27T09:05:08.613Z,8.53
2018-12-27T09:10:05.883Z,8.57
2018-12-27T09:15:01.339Z,7.60
2018-12-27T09:19:56.818Z,8.93
2018-12-27T09:24:52.276Z,8.57
2018-12-27T09:29:47.748Z,8.50
2018-12-27T09:34:43.259Z,8.23
2018-12-27T09:39:38.817Z,8.23
2018-12-27T09:44:34.282Z,9.40
2018-12-27T09:49:29.809Z,8.13
2018-12-27T09:54:25.328Z,7.83
2018-12-27T09:59:20.798Z,9.10
2018-12-27T10:04:16.272Z,9.33
2018-12-27T10:09:11.740Z,8.63
2018-12-27T10:14:07.225Z,8.83
2018-12-27T10:19:02.761Z,9.10
2018-12-27T10:23:58.220Z,9.43
2018-12-27T10:28:53.690Z,8.07
2018-12-27T10:33:49.258Z,9.07
2018-12-27T10:38:44.732Z,9.07
2018-12-27T10:43:40.220Z,10.10
2018-12-27T10:48:35.683Z,9.60
2018-12-27T10:53:31.312Z,9.63
2018-12-27T10:58:26.781Z,8.93
2018-12-27T11:03:22.352Z,9.03
2018-12-27T11:08:17.812Z,8.73
2018-12-27T11:13:13.293Z,9.07
2018-12-27T11:18:08.801Z,8.83
2018-12-27T11:23:04.268Z,9.07
2018-12-27T11:27:59.769Z,8.77
2018-12-27T11:32:55.333Z,8.97
2018-12-27T11:37:50.859Z,8.67
2018-12-27T11:42:46.342Z,8.50
2018-12-27T11:47:41.888Z,9.00
2018-12-27T11:52:37.353Z,8.73
2018-12-27T11:57:32.828Z,9.50
2018-12-27T12:02:31.217Z,9.10
2018-12-27T12:07:25.628Z,8.43
2018-12-27T12:12:21.114Z,8.70
2018-12-27T12:17:16.700Z,8.90
2018-12-27T12:22:12.199Z,8.20
2018-12-27T12:27:07.711Z,8.13
2018-12-27T12:32:03.274Z,8.50
2018-12-27T12:36:58.853Z,9.10
2018-12-27T12:41:54.343Z,7.93
2018-12-27T12:46:49.799Z,7.97
2018-12-27T12:51:45.354Z,7.93
2018-12-27T12:56:40.828Z,8.37
2018-12-27T13:01:36.314Z,8.53
2018-12-27T13:06:31.781Z,8.00
2018-12-27T13:11:27.248Z,8.00
2018-12-27T13:16:22.716Z,7.63
2018-12-27T13:21:18.229Z,7.80
2018-12-27T13:26:13.700Z,8.00
2018-12-27T13:31:09.175Z,7.47
2018-12-27T13:36:04.689Z,8.00
2018-12-27T13:41:00.733Z,8.73
2018-12-27T13:45:56.319Z,7.83
2018-12-27T13:50:53.582Z,8.20
2018-12-27T13:55:49.081Z,8.03
2018-12-27T14:00:44.525Z,7.80
2018-12-27T14:05:39.995Z,8.40
2018-12-27T14:10:35.529Z,7.73
2018-12-27T14:15:30.976Z,7.40
2018-12-27T14:20:26.419Z,7.87
2018-12-27T14:25:21.889Z,7.90
2018-12-27T14:30:17.408Z,7.77
2018-12-27T14:35:12.910Z,8.57
2018-12-27T14:40:10.069Z,7.83
2018-12-27T14:45:08.616Z,7.83
2018-12-27T14:50:05.427Z,7.77
2018-12-27T14:55:00.888Z,7.80
2018-12-27T14:59:56.358Z,7.97
2018-12-27T15:04:51.817Z,8.30
2018-12-27T15:09:47.304Z,8.10
2018-12-27T15:14:42.787Z,8.73
2018-12-27T15:19:38.273Z,8.37
2018-12-27T15:24:33.744Z,8.20
2018-12-27T15:29:29.245Z,7.97
2018-12-27T15:34:24.731Z,8.07
2018-12-27T15:39:20.223Z,7.70
2018-12-27T15:44:15.710Z,7.90
2018-12-27T15:49:11.186Z,8.20
2018-12-27T15:54:06.762Z,8.27
2018-12-27T15:59:02.238Z,9.00
2018-12-27T16:03:57.695Z,8.83
2018-12-27T16:08:53.155Z,9.53
2018-12-27T16:13:48.666Z,9.43
2018-12-27T16:18:44.135Z,10.37
2018-12-27T16:23:39.629Z,9.07
2018-12-27T16:28:35.223Z,10.83
2018-12-27T16:33:30.727Z,10.43
2018-12-27T16:38:26.220Z,9.80
2018-12-27T16:43:21.701Z,9.43
2018-12-27T16:48:17.197Z,9.77
2018-12-27T16:53:12.651Z,9.23
2018-12-27T16:58:08.168Z,9.87
2018-12-27T17:03:03.717Z,11.47
2018-12-27T17:07:59.188Z,13.10
2018-12-27T17:12:54.674Z,11.37
2018-12-27T17:17:50.144Z,11.63
2018-12-27T17:22:45.807Z,11.17
2018-12-27T17:27:41.306Z,10.77
2018-12-27T17:32:37.978Z,10.97
2018-12-27T17:37:33.537Z,10.97
2018-12-27T17:42:28.999Z,11.50
2018-12-27T17:47:24.500Z,10.50
2018-12-27T17:52:19.962Z,10.93
2018-12-27T17:57:15.687Z,12.33
2018-12-27T18:02:12.114Z,12.60
2018-12-27T18:07:09.133Z,10.93
2018-12-27T18:12:06.208Z,10.70
2018-12-27T18:17:02.335Z,10.57
2018-12-27T18:21:58.267Z,10.60
2018-12-27T18:26:54.688Z,13.10
2018-12-27T18:31:51.490Z,10.53
2018-12-27T18:36:48.298Z,11.73
2018-12-27T18:41:43.763Z,12.30
2018-12-27T18:46:39.903Z,11.87
2018-12-27T18:51:35.757Z,11.47
2018-12-27T18:56:31.326Z,12.43
2018-12-27T19:01:28.319Z,12.37
2018-12-27T19:06:24.632Z,12.20
2018-12-27T19:12:13.505Z,12.50
2018-12-27T19:17:19.332Z,11.37
2018-12-27T19:22:30.805Z,12.80
2018-12-27T19:27:26.269Z,12.53
2018-12-27T19:32:21.850Z,12.33
2018-12-27T19:37:17.329Z,12.33
2018-12-27T19:42:12.813Z,12.77
2018-12-27T19:47:08.326Z,13.13
2018-12-27T19:52:03.788Z,11.87
2018-12-27T19:56:59.271Z,11.23
2018-12-27T20:01:54.924Z,11.53
2018-12-27T20:06:50.426Z,12.37
2018-12-27T20:11:45.885Z,10.53
2018-12-27T20:16:41.469Z,10.83
2018-12-27T20:21:36.948Z,11.43
2018-12-27T20:26:32.442Z,12.50
2018-12-27T20:31:27.980Z,11.93
2018-12-27T20:36:23.584Z,12.60
2018-12-27T20:41:19.081Z,13.13
2018-12-27T20:46:14.565Z,12.53
2018-12-27T20:51:10.078Z,12.87
2018-12-27T20:56:05.548Z,12.03
2018-12-27T21:01:01.017Z,12.43
2018-12-27T21:05:56.491Z,12.37
2018-12-27T21:10:51.999Z,14.00
2018-12-27T21:15:47.560Z,11.97
2018-12-27T21:20:43.047Z,11.70
2018-12-27T21:25:38.642Z,12.30
2018-12-27T21:30:34.118Z,11.97
2018-12-27T21:35:29.639Z,12.13
2018-12-27T21:40:25.134Z,13.20
2018-12-27T21:45:20.729Z,12.40
2018-12-27T21:50:16.203Z,13.20
2018-12-27T21:55:11.657Z,11.80
2018-12-27T22:00:08.103Z,13.03
2018-12-27T22:05:22.957Z,11.97
2018-12-27T22:10:18.489Z,11.67
2018-12-27T22:15:13.930Z,11.77
2018-12-27T22:20:09.447Z,12.10
2018-12-27T22:25:05.297Z,11.60
2018-12-27T22:30:00.742Z,11.47
2018-12-27T22:34:59.908Z,11.23
2018-12-27T22:39:55.387Z,12.03
2018-12-27T22:44:50.922Z,12.03
2018-12-27T22:49:46.419Z,11.70
2018-12-27T22:54:41.916Z,12.10
2018-12-27T22:59:37.413Z,12.17
2018-12-27T23:04:32.955Z,11.53
2018-12-27T23:09:28.436Z,11.83
2018-12-27T23:14:23.911Z,12.07
2018-12-27T23:19:19.378Z,11.97
2018-12-27T23:24:14.851Z,11.43
2018-12-27T23:29:10.338Z,11.43
2018-12-27T23:34:05.843Z,12.00
2018-12-27T23:39:01.322Z,11.87
2018-12-27T23:43:56.856Z,12.47
2018-12-27T23:48:52.351Z,11.33
2018-12-27T23:53:47.834Z,11.77
2018-12-27T23:58:43.342Z,12.53
